createdAt,value
2018-01-28T00:01:08.256Z,38.10
2018-01-28T00:03:34.270Z,39.63
2018-01-28T00:06:00.289Z,50.87
2018-01-28T00:08:26.278Z,48.57
2018-01-28T00:10:55.520Z,41.73
2018-01-28T00:13:21.584Z,40.83
2018-01-28T00:15:47.613Z,43.13
2018-01-28T00:18:13.660Z,50.23
2018-01-28T00:20:39.722Z,56.00
2018-01-28T00:23:05.701Z,50.63
2018-01-28T00:25:31.708Z,47.57
2018-01-28T00:27:57.725Z,41.77
2018-01-28T00:30:34.728Z,37.57
2018-01-28T00:33:00.709Z,36.00
2018-01-28T00:35:26.725Z,35.40
2018-01-28T00:37:52.728Z,37.73
2018-01-28T00:40:22.676Z,36.07
2018-01-28T00:42:48.685Z,36.40
2018-01-28T00:45:14.673Z,33.07
2018-01-28T00:47:40.693Z,36.20
2018-01-28T00:50:06.909Z,32.80
2018-01-28T00:52:32.900Z,35.07
2018-01-28T00:54:58.909Z,39.87
2018-01-28T00:57:24.912Z,31.87
2018-01-28T00:59:51.104Z,31.73
2018-01-28T01:02:17.086Z,34.70
2018-01-28T01:04:43.087Z,35.40
2018-01-28T01:07:09.092Z,37.23
2018-01-28T01:09:35.067Z,36.50
2018-01-28T01:12:14.900Z,35.93
2018-01-28T01:14:40.922Z,35.20
2018-01-28T01:17:06.900Z,37.37
2018-01-28T01:19:32.881Z,37.03
2018-01-28T01:22:01.032Z,33.97
2018-01-28T01:24:27.008Z,36.17
2018-01-28T01:26:53.029Z,41.73
2018-01-28T01:29:19.045Z,42.33
2018-01-28T01:31:47.060Z,36.83
2018-01-28T01:34:13.078Z,35.07
2018-01-28T01:36:39.080Z,33.67
2018-01-28T01:39:05.061Z,36.87
2018-01-28T01:41:34.520Z,40.47
2018-01-28T01:44:00.542Z,35.77
2018-01-28T01:46:26.597Z,35.20
2018-01-28T01:48:52.588Z,43.30
2018-01-28T01:51:20.801Z,37.37
2018-01-28T01:53:46.813Z,38.33
2018-01-28T01:56:12.817Z,35.10
2018-01-28T01:58:38.808Z,42.57
2018-01-28T02:01:12.509Z,37.57
2018-01-28T02:03:38.497Z,42.40
2018-01-28T02:06:04.512Z,33.47
2018-01-28T02:08:30.497Z,38.33
2018-01-28T02:11:00.242Z,35.60
2018-01-28T02:13:26.221Z,39.43
2018-01-28T02:15:52.196Z,45.50
2018-01-28T02:18:18.208Z,49.53
2018-01-28T02:20:47.692Z,44.80
2018-01-28T02:23:13.669Z,44.67
2018-01-28T02:25:39.673Z,47.23
2018-01-28T02:28:05.685Z,49.97
2018-01-28T02:30:32.685Z,43.27
2018-01-28T02:32:58.701Z,36.43
2018-01-28T02:35:24.761Z,34.40
2018-01-28T02:37:50.954Z,39.43
2018-01-28T02:40:22.260Z,31.50
2018-01-28T02:42:48.276Z,38.30
2018-01-28T02:45:14.288Z,33.73
2018-01-28T02:47:40.297Z,38.37
2018-01-28T02:50:14.738Z,32.67
2018-01-28T02:52:40.753Z,34.60
2018-01-28T02:55:06.741Z,45.73
2018-01-28T02:57:32.756Z,46.57
2018-01-28T03:00:04.997Z,54.73
2018-01-28T03:02:31.005Z,50.93
2018-01-28T03:04:57.017Z,47.00
2018-01-28T03:07:23.013Z,72.10
2018-01-28T03:10:02.122Z,59.77
2018-01-28T03:12:28.133Z,49.10
2018-01-28T03:14:54.136Z,36.07
2018-01-28T03:17:20.121Z,31.50
2018-01-28T03:19:47.217Z,36.77
2018-01-28T03:22:13.228Z,48.63
2018-01-28T03:24:39.233Z,44.37
2018-01-28T03:27:05.232Z,43.40
2018-01-28T03:29:39.936Z,42.93
2018-01-28T03:32:06.093Z,46.83
2018-01-28T03:34:32.144Z,51.20
2018-01-28T03:36:58.198Z,51.00
2018-01-28T03:39:24.257Z,51.40
2018-01-28T03:41:50.232Z,48.47
2018-01-28T03:44:16.253Z,37.17
2018-01-28T03:46:42.265Z,41.43
2018-01-28T03:49:08.274Z,37.47
2018-01-28T03:51:35.464Z,40.27
2018-01-28T03:54:01.492Z,41.30
2018-01-28T03:56:27.501Z,34.63
2018-01-28T03:58:53.509Z,37.00
2018-01-28T04:01:24.780Z,33.40
2018-01-28T04:03:50.785Z,31.70
2018-01-28T04:06:16.792Z,41.50
2018-01-28T04:08:42.796Z,39.63
2018-01-28T04:11:17.257Z,35.23
2018-01-28T04:13:43.245Z,37.47
2018-01-28T04:16:09.252Z,35.10
2018-01-28T04:18:35.274Z,28.93
2018-01-28T04:21:02.360Z,30.73
2018-01-28T04:23:28.369Z,26.43
2018-01-28T04:25:54.719Z,34.67
2018-01-28T04:28:20.729Z,35.10
2018-01-28T04:33:35.785Z,35.23
2018-01-28T04:36:01.801Z,39.83
2018-01-28T04:38:27.812Z,34.03
2018-01-28T04:41:00.780Z,33.43
2018-01-28T04:43:26.800Z,26.43
2018-01-28T04:45:52.808Z,24.27
2018-01-28T04:48:18.789Z,28.40
2018-01-28T04:50:51.921Z,36.70
2018-01-28T04:53:17.937Z,33.20
2018-01-28T04:55:43.973Z,32.47
2018-01-28T04:58:10.029Z,35.60
2018-01-28T05:00:51.793Z,37.97
2018-01-28T05:03:17.820Z,25.90
2018-01-28T05:05:43.797Z,28.57
2018-01-28T05:08:09.856Z,27.23
2018-01-28T05:10:37.940Z,26.90
2018-01-28T05:13:04.008Z,26.23
2018-01-28T05:15:30.060Z,35.73
2018-01-28T05:17:56.071Z,34.13
2018-01-28T05:23:12.145Z,48.17
2018-01-28T05:25:38.216Z,48.47
2018-01-28T05:28:04.273Z,46.27
2018-01-28T05:30:32.388Z,37.50
2018-01-28T05:32:58.365Z,41.50
2018-01-28T05:35:24.376Z,63.27
2018-01-28T05:37:50.441Z,51.57
2018-01-28T05:40:18.665Z,40.60
2018-01-28T05:42:44.677Z,36.57
2018-01-28T05:45:10.685Z,36.40
2018-01-28T05:47:36.692Z,36.87
2018-01-28T05:50:11.641Z,46.53
2018-01-28T05:52:37.625Z,51.13
2018-01-28T05:55:03.618Z,52.53
2018-01-28T05:57:29.653Z,43.17
2018-01-28T06:00:08.389Z,45.40
2018-01-28T06:02:34.431Z,42.27
2018-01-28T06:05:00.484Z,40.07
2018-01-28T06:07:26.493Z,41.10
2018-01-28T06:10:00.090Z,47.67
2018-01-28T06:12:26.096Z,52.33
2018-01-28T06:14:52.119Z,60.33
2018-01-28T06:17:18.136Z,60.53
2018-01-28T06:19:45.177Z,40.43
2018-01-28T06:22:11.209Z,33.57
2018-01-28T06:24:37.253Z,32.40
2018-01-28T06:27:03.287Z,36.03
2018-01-28T06:29:34.524Z,47.87
2018-01-28T06:32:00.588Z,36.53
2018-01-28T06:34:28.536Z,47.07
2018-01-28T06:36:54.521Z,62.50
2018-01-28T06:39:25.337Z,46.83
2018-01-28T06:41:51.362Z,56.20
2018-01-28T06:44:17.347Z,55.43
2018-01-28T06:46:43.411Z,61.53
2018-01-28T06:49:11.561Z,115.43
2018-01-28T06:51:37.625Z,91.47
2018-01-28T06:54:03.613Z,93.80
2018-01-28T06:56:29.639Z,85.87
2018-01-28T06:58:56.697Z,95.40
2018-01-28T07:01:22.737Z,60.07
2018-01-28T07:03:48.741Z,89.87
2018-01-28T07:06:14.757Z,99.40
2018-01-28T07:08:40.737Z,93.63
2018-01-28T07:11:06.925Z,110.00
2018-01-28T07:13:32.933Z,89.37
2018-01-28T07:15:58.940Z,98.10
2018-01-28T07:18:24.961Z,71.83
2018-01-28T07:20:51.124Z,73.80
2018-01-28T07:23:17.142Z,60.27
2018-01-28T07:25:43.149Z,71.23
2018-01-28T07:28:09.168Z,67.53
2018-01-28T07:30:35.317Z,64.13
2018-01-28T07:33:01.301Z,99.27
2018-01-28T07:35:27.291Z,75.17
2018-01-28T07:37:53.300Z,73.60
2018-01-28T07:40:23.397Z,64.93
2018-01-28T07:42:49.708Z,65.13
2018-01-28T07:45:15.708Z,57.53
2018-01-28T07:47:41.729Z,72.03
2018-01-28T07:50:11.642Z,63.63
2018-01-28T07:52:38.183Z,71.80
2018-01-28T07:55:04.933Z,74.27
2018-01-28T07:57:30.976Z,70.10
2018-01-28T07:59:58.164Z,66.57
2018-01-28T08:02:24.133Z,71.70
2018-01-28T08:04:50.141Z,69.27
2018-01-28T08:07:16.200Z,78.70
2018-01-28T08:10:10.053Z,113.70
2018-01-28T08:12:36.074Z,88.43
2018-01-28T08:15:02.129Z,79.47
2018-01-28T08:17:28.125Z,71.97
2018-01-28T08:20:02.220Z,75.07
2018-01-28T08:22:28.282Z,199.83
2018-01-28T08:24:54.316Z,113.80
2018-01-28T08:27:24.080Z,91.60
2018-01-28T08:29:53.285Z,151.90
2018-01-28T08:32:19.288Z,124.50
2018-01-28T08:34:45.278Z,103.93
2018-01-28T08:37:11.265Z,92.87
2018-01-28T08:39:38.532Z,89.63
2018-01-28T08:42:04.525Z,134.00
2018-01-28T08:44:30.502Z,79.33
2018-01-28T08:46:56.577Z,76.17
2018-01-28T08:49:22.628Z,78.63
2018-01-28T08:51:48.632Z,84.20
2018-01-28T08:54:14.685Z,75.80
2018-01-28T08:56:40.664Z,67.93
2018-01-28T08:59:16.624Z,84.80
2018-01-28T09:01:42.653Z,76.30
2018-01-28T09:04:08.637Z,62.97
2018-01-28T09:06:34.650Z,67.13
2018-01-28T09:09:08.788Z,88.87
2018-01-28T09:11:34.802Z,132.07
2018-01-28T09:14:00.832Z,86.03
2018-01-28T09:16:26.817Z,72.13
2018-01-28T09:21:51.245Z,71.70
2018-01-28T09:24:17.230Z,75.03
2018-01-28T09:26:43.222Z,78.90
2018-01-28T09:29:24.329Z,63.93
2018-01-28T09:31:50.336Z,76.10
2018-01-28T09:34:16.445Z,71.73
2018-01-28T09:36:42.468Z,69.20
2018-01-28T09:39:20.015Z,63.50
2018-01-28T09:41:46.064Z,81.57
2018-01-28T09:44:12.077Z,82.00
2018-01-28T09:46:38.086Z,85.07
2018-01-28T09:49:04.129Z,76.67
2018-01-28T09:51:30.137Z,77.73
2018-01-28T09:53:56.117Z,78.47
2018-01-28T09:56:22.118Z,83.07
2018-01-28T09:58:52.193Z,92.87
2018-01-28T10:01:18.214Z,74.60
2018-01-28T10:03:59.660Z,67.47
2018-01-28T10:06:53.576Z,82.10
2018-01-28T10:09:45.419Z,84.87
2018-01-28T10:12:11.648Z,88.27
2018-01-28T10:14:37.656Z,99.30
2018-01-28T10:17:03.681Z,90.03
2018-01-28T10:19:30.685Z,82.40
2018-01-28T10:21:56.689Z,75.40
2018-01-28T10:24:22.672Z,76.97
2018-01-28T10:26:48.672Z,95.20
2018-01-28T10:29:18.245Z,85.30
2018-01-28T10:31:44.249Z,89.73
2018-01-28T10:34:10.256Z,101.73
2018-01-28T10:36:36.240Z,73.97
2018-01-28T10:39:02.493Z,82.13
2018-01-28T10:41:28.508Z,80.13
2018-01-28T10:43:54.528Z,90.50
2018-01-28T10:46:20.755Z,60.63
2018-01-28T10:48:47.908Z,72.60
2018-01-28T10:51:13.935Z,73.97
2018-01-28T10:53:40.008Z,84.57
2018-01-28T10:56:05.988Z,73.83
2018-01-28T10:58:35.756Z,56.23
2018-01-28T11:01:01.891Z,63.17
2018-01-28T11:03:27.981Z,79.97
2018-01-28T11:05:54.021Z,52.97
2018-01-28T11:08:20.165Z,49.97
2018-01-28T11:10:46.221Z,47.00
2018-01-28T11:13:12.229Z,53.83
2018-01-28T11:15:40.233Z,52.03
2018-01-28T11:18:06.225Z,89.00
2018-01-28T11:20:34.384Z,51.13
2018-01-28T11:23:00.451Z,51.00
2018-01-28T11:25:26.483Z,46.60
2018-01-28T11:27:52.502Z,44.33
2018-01-28T11:30:18.569Z,36.43
2018-01-28T11:32:44.598Z,55.53
2018-01-28T11:35:10.634Z,48.70
2018-01-28T11:37:36.621Z,30.80
2018-01-28T11:40:02.766Z,33.53
2018-01-28T11:42:28.817Z,28.03
2018-01-28T11:44:54.824Z,28.90
2018-01-28T11:47:20.805Z,33.87
2018-01-28T11:49:46.971Z,33.17
2018-01-28T11:52:12.958Z,33.93
2018-01-28T11:54:38.948Z,33.30
2018-01-28T11:57:05.009Z,36.80
2018-01-28T11:59:31.717Z,32.70
2018-01-28T12:01:57.757Z,25.83
2018-01-28T12:04:23.784Z,30.03
2018-01-28T12:06:49.849Z,22.03
2018-01-28T12:09:16.150Z,24.87
2018-01-28T12:11:42.158Z,24.97
2018-01-28T12:14:08.145Z,26.00
2018-01-28T12:16:34.136Z,29.13
2018-01-28T12:19:12.950Z,23.37
2018-01-28T12:21:38.950Z,17.70
2018-01-28T12:24:04.957Z,20.00
2018-01-28T12:26:30.981Z,20.83
2018-01-28T12:29:00.661Z,19.77
2018-01-28T12:31:26.726Z,19.97
2018-01-28T12:33:52.793Z,16.23
2018-01-28T12:36:18.823Z,18.27
2018-01-28T12:38:45.876Z,15.27
2018-01-28T12:41:11.885Z,16.23
2018-01-28T12:43:37.893Z,17.70
2018-01-28T12:46:03.890Z,15.77
2018-01-28T12:48:30.113Z,16.00
2018-01-28T12:50:56.135Z,17.60
2018-01-28T12:53:22.162Z,18.20
2018-01-28T12:55:48.157Z,17.43
2018-01-28T12:58:14.269Z,19.00
2018-01-28T13:00:40.269Z,18.17
2018-01-28T13:03:06.295Z,18.97
2018-01-28T13:05:32.301Z,18.33
2018-01-28T13:07:59.297Z,23.87
2018-01-28T13:10:25.314Z,20.60
2018-01-28T13:12:51.334Z,16.50
2018-01-28T13:15:17.322Z,18.43
2018-01-28T13:17:43.305Z,18.83
2018-01-28T13:20:09.363Z,18.33
2018-01-28T13:22:35.369Z,19.67
2018-01-28T13:25:01.369Z,18.63
2018-01-28T13:27:27.389Z,17.03
2018-01-28T13:29:53.557Z,15.87
2018-01-28T13:32:21.782Z,20.37
2018-01-28T13:34:48.590Z,19.47
2018-01-28T13:37:14.570Z,19.80
2018-01-28T13:39:40.825Z,19.63
2018-01-28T13:42:06.841Z,20.73
2018-01-28T13:44:32.896Z,19.07
2018-01-28T13:46:58.872Z,19.23
2018-01-28T13:49:35.588Z,20.23
2018-01-28T13:52:01.605Z,20.33
2018-01-28T13:54:27.581Z,22.27
2018-01-28T13:56:53.596Z,20.90
2018-01-28T13:59:20.741Z,19.80
2018-01-28T14:01:46.755Z,21.50
2018-01-28T14:04:12.810Z,22.50
2018-01-28T14:06:38.833Z,23.77
2018-01-28T14:09:08.537Z,22.90
2018-01-28T14:11:35.407Z,21.90
2018-01-28T14:14:01.461Z,21.87
2018-01-28T14:16:27.464Z,25.83
2018-01-28T14:18:53.516Z,29.57
2018-01-28T14:21:19.501Z,28.50
2018-01-28T14:23:45.521Z,31.90
2018-01-28T14:26:11.537Z,33.97
2018-01-28T14:28:39.791Z,29.87
2018-01-28T14:31:05.808Z,31.27
2018-01-28T14:33:31.866Z,33.77
2018-01-28T14:35:57.868Z,35.67
2018-01-28T14:38:23.901Z,48.87
2018-01-28T14:40:49.960Z,48.23
2018-01-28T14:43:16.031Z,35.90
2018-01-28T14:45:42.064Z,30.60
2018-01-28T14:48:10.260Z,29.40
2018-01-28T14:50:36.275Z,30.33
2018-01-28T14:53:02.293Z,31.57
2018-01-28T14:55:28.349Z,34.47
2018-01-28T14:57:57.711Z,38.03
2018-01-28T15:00:23.725Z,38.37
2018-01-28T15:02:49.748Z,32.37
2018-01-28T15:05:15.786Z,34.40
2018-01-28T15:07:45.944Z,35.57
2018-01-28T15:10:11.921Z,87.73
2018-01-28T15:12:37.925Z,56.60
2018-01-28T15:15:03.937Z,52.17
2018-01-28T15:17:29.944Z,44.03
2018-01-28T15:19:59.925Z,58.03
2018-01-28T15:22:25.920Z,72.67
2018-01-28T15:24:51.975Z,130.13
2018-01-28T15:27:17.981Z,94.50
2018-01-28T15:29:47.737Z,75.97
2018-01-28T15:32:13.769Z,84.97
2018-01-28T15:34:39.782Z,68.70
2018-01-28T15:37:05.773Z,63.17
2018-01-28T15:39:35.018Z,61.83
2018-01-28T15:42:01.005Z,70.83
2018-01-28T15:44:27.023Z,61.47
2018-01-28T15:46:53.009Z,86.40
2018-01-28T15:49:21.282Z,102.40
2018-01-28T15:51:47.298Z,87.73
2018-01-28T15:54:13.361Z,85.27
2018-01-28T15:56:39.373Z,82.90
2018-01-28T15:59:13.721Z,51.70
2018-01-28T16:01:39.773Z,48.13
2018-01-28T16:04:05.800Z,80.30
2018-01-28T16:06:31.912Z,88.60
2018-01-28T16:09:02.505Z,96.07
2018-01-28T16:11:28.517Z,96.87
2018-01-28T16:13:54.494Z,101.53
2018-01-28T16:16:20.797Z,105.83
2018-01-28T16:18:48.816Z,85.40
2018-01-28T16:21:14.800Z,77.30
2018-01-28T16:23:41.657Z,78.43
2018-01-28T16:26:07.708Z,83.20
2018-01-28T16:28:34.689Z,102.57
2018-01-28T16:31:00.697Z,95.93
2018-01-28T16:33:26.676Z,69.60
2018-01-28T16:35:52.684Z,58.63
2018-01-28T16:38:18.881Z,62.50
2018-01-28T16:40:44.892Z,65.00
2018-01-28T16:43:10.912Z,64.37
2018-01-28T16:45:36.942Z,64.10
2018-01-28T16:48:09.388Z,68.10
2018-01-28T16:50:35.437Z,53.07
2018-01-28T16:53:01.521Z,55.40
2018-01-28T16:55:27.541Z,52.80
2018-01-28T16:57:53.674Z,50.57
2018-01-28T17:00:19.682Z,55.60
2018-01-28T17:02:45.665Z,63.83
2018-01-28T17:05:11.668Z,88.70
2018-01-28T17:07:43.808Z,162.63
2018-01-28T17:10:09.817Z,132.43
2018-01-28T17:12:35.822Z,110.17
2018-01-28T17:15:01.833Z,93.77
2018-01-28T17:17:27.818Z,70.77
2018-01-28T17:19:53.841Z,68.33
2018-01-28T17:22:19.858Z,89.53
2018-01-28T17:24:45.921Z,85.40
2018-01-28T17:27:11.913Z,63.47
2018-01-28T17:29:43.761Z,80.17
2018-01-28T17:32:09.905Z,106.90
2018-01-28T17:34:35.929Z,101.47
2018-01-28T17:37:01.918Z,87.97
2018-01-28T17:39:35.668Z,84.93
2018-01-28T17:42:01.681Z,53.60
2018-01-28T17:44:27.740Z,45.40
2018-01-28T17:46:53.724Z,59.33
2018-01-28T17:49:20.412Z,33.57
2018-01-28T17:51:46.472Z,36.67
2018-01-28T17:54:12.458Z,51.50
2018-01-28T17:56:38.481Z,64.00
2018-01-28T17:59:04.501Z,79.17
2018-01-28T18:01:30.527Z,58.60
2018-01-28T18:03:56.518Z,88.27
2018-01-28T18:06:22.526Z,63.20
2018-01-28T18:08:48.705Z,48.63
2018-01-28T18:11:14.685Z,55.83
2018-01-28T18:13:40.802Z,82.27
2018-01-28T18:16:06.790Z,91.10
2018-01-28T18:18:32.904Z,63.40
2018-01-28T18:20:58.938Z,68.50
2018-01-28T18:23:24.921Z,69.10
2018-01-28T18:25:50.937Z,69.33
2018-01-28T18:28:19.190Z,71.57
2018-01-28T18:30:46.151Z,76.97
2018-01-28T18:33:12.156Z,85.77
2018-01-28T18:35:38.181Z,76.60
2018-01-28T18:38:08.720Z,83.03
2018-01-28T18:40:34.743Z,98.87
2018-01-28T18:43:00.721Z,101.40
2018-01-28T18:45:26.773Z,91.07
2018-01-28T18:48:02.981Z,63.07
2018-01-28T18:50:28.989Z,135.93
2018-01-28T18:52:54.999Z,144.80
2018-01-28T18:55:21.009Z,152.40
2018-01-28T18:57:47.108Z,98.27
2018-01-28T19:00:13.096Z,54.70
2018-01-28T19:02:39.086Z,69.13
2018-01-28T19:05:05.121Z,77.97
2018-01-28T19:07:34.848Z,98.80
2018-01-28T19:10:00.872Z,102.63
2018-01-28T19:12:26.887Z,133.87
2018-01-28T19:14:53.962Z,78.03
2018-01-28T19:17:20.135Z,76.90
2018-01-28T19:19:46.179Z,67.20
2018-01-28T19:22:12.177Z,67.73
2018-01-28T19:24:38.225Z,96.40
2018-01-28T19:27:11.285Z,77.93
2018-01-28T19:29:37.293Z,68.77
2018-01-28T19:32:03.277Z,72.17
2018-01-28T19:34:29.325Z,79.00
2018-01-28T19:36:55.353Z,81.60
2018-01-28T19:39:29.866Z,63.43
2018-01-28T19:41:55.881Z,64.13
2018-01-28T19:44:21.934Z,74.27
2018-01-28T19:46:47.933Z,68.27
2018-01-28T19:49:13.985Z,71.10
2018-01-28T19:51:39.969Z,72.83
2018-01-28T19:54:05.985Z,85.80
2018-01-28T19:56:32.013Z,82.50
2018-01-28T19:58:58.197Z,92.13
2018-01-28T20:01:24.215Z,83.10
2018-01-28T20:03:50.233Z,73.40
2018-01-28T20:06:16.218Z,74.73
2018-01-28T20:08:42.413Z,72.60
2018-01-28T20:11:08.418Z,69.40
2018-01-28T20:13:34.432Z,64.87
2018-01-28T20:16:00.441Z,63.87
2018-01-28T20:18:27.656Z,66.50
2018-01-28T20:20:53.792Z,59.87
2018-01-28T20:23:19.772Z,57.83
2018-01-28T20:25:45.823Z,53.90
2018-01-28T20:28:13.152Z,49.87
2018-01-28T20:30:39.180Z,45.77
2018-01-28T20:33:05.242Z,46.17
2018-01-28T20:35:31.249Z,53.23
2018-01-28T20:38:04.526Z,91.40
2018-01-28T20:40:30.556Z,68.67
2018-01-28T20:42:56.591Z,57.57
2018-01-28T20:45:22.592Z,75.13
2018-01-28T20:47:48.653Z,67.83
2018-01-28T20:50:14.656Z,57.33
2018-01-28T20:52:40.764Z,69.93
2018-01-28T20:55:06.772Z,101.30
2018-01-28T20:57:33.943Z,92.67
2018-01-28T20:59:59.944Z,78.20
2018-01-28T21:02:25.982Z,51.87
2018-01-28T21:04:51.997Z,45.90
2018-01-28T21:07:21.377Z,57.33
2018-01-28T21:09:47.514Z,68.73
2018-01-28T21:12:13.556Z,59.37
2018-01-28T21:14:39.669Z,76.67
2018-01-28T21:17:09.020Z,75.77
2018-01-28T21:19:35.021Z,54.67
2018-01-28T21:22:01.006Z,66.93
2018-01-28T21:24:27.005Z,65.77
2018-01-28T21:26:53.013Z,60.10
2018-01-28T21:29:18.997Z,61.97
2018-01-28T21:31:45.045Z,71.50
2018-01-28T21:34:11.141Z,63.90
2018-01-28T21:36:37.157Z,70.77
2018-01-28T21:39:04.286Z,66.80
2018-01-28T21:41:30.343Z,58.17
2018-01-28T21:43:56.333Z,59.77
2018-01-28T21:46:22.336Z,112.17
2018-01-28T21:48:48.499Z,112.07
2018-01-28T21:51:14.533Z,84.53
2018-01-28T21:53:40.548Z,71.47
2018-01-28T21:56:06.541Z,73.37
2018-01-28T21:58:40.424Z,77.10
2018-01-28T22:01:06.440Z,70.50
2018-01-28T22:03:32.453Z,75.63
2018-01-28T22:05:58.473Z,79.23
2018-01-28T22:08:24.564Z,69.70
2018-01-28T22:10:50.617Z,66.23
2018-01-28T22:13:16.625Z,68.40
2018-01-28T22:15:42.620Z,61.90
2018-01-28T22:18:08.629Z,66.33
2018-01-28T22:20:34.637Z,68.73
2018-01-28T22:23:00.645Z,63.27
2018-01-28T22:25:26.671Z,63.13
2018-01-28T22:27:52.909Z,64.07
2018-01-28T22:30:18.933Z,63.83
2018-01-28T22:32:44.940Z,82.33
2018-01-28T22:35:10.944Z,69.30
2018-01-28T22:37:40.586Z,66.60
2018-01-28T22:40:06.572Z,57.47
2018-01-28T22:42:32.593Z,59.27
2018-01-28T22:44:58.617Z,72.93
2018-01-28T22:47:28.776Z,115.13
2018-01-28T22:49:54.783Z,83.30
2018-01-28T22:52:20.809Z,69.97
2018-01-28T22:54:46.792Z,70.20
2018-01-28T22:57:12.822Z,70.70
2018-01-28T22:59:38.796Z,67.57
2018-01-28T23:02:04.862Z,65.67
2018-01-28T23:04:30.864Z,63.13
2018-01-28T23:06:56.866Z,75.33
2018-01-28T23:09:22.877Z,64.03
2018-01-28T23:11:48.877Z,60.03
2018-01-28T23:14:14.881Z,75.93
2018-01-28T23:16:43.900Z,65.83
2018-01-28T23:19:09.872Z,69.23
2018-01-28T23:21:35.889Z,72.97
2018-01-28T23:24:01.924Z,66.00
2018-01-28T23:26:42.868Z,62.93
2018-01-28T23:29:08.844Z,58.77
2018-01-28T23:31:34.925Z,61.43
2018-01-28T23:34:00.941Z,63.80
2018-01-28T23:36:41.844Z,64.27
2018-01-28T23:39:07.906Z,64.07
2018-01-28T23:41:33.913Z,64.33
2018-01-28T23:43:59.889Z,69.37
2018-01-28T23:46:25.909Z,77.83
2018-01-28T23:48:51.913Z,72.33
2018-01-28T23:51:17.884Z,67.20
2018-01-28T23:53:43.895Z,62.43
2018-01-28T23:56:09.908Z,70.87
2018-01-28T23:58:36.104Z,61.93
